createdAt,value
2022-10-31T00:01:59.198Z,84.82
2022-10-31T00:06:59.369Z,84.77
2022-10-31T00:11:59.155Z,84.74
2022-10-31T00:16:59.100Z,84.88
2022-10-31T00:21:59.451Z,84.91
2022-10-31T00:26:59.060Z,85.07
2022-10-31T00:31:59.084Z,85.08
2022-10-31T00:36:59.196Z,84.95
2022-10-31T00:41:59.038Z,85.06
2022-10-31T00:46:59.097Z,85.20
2022-10-31T00:51:59.327Z,85.21
2022-10-31T00:56:59.052Z,85.11
2022-10-31T01:01:59.257Z,85.47
2022-10-31T01:06:59.125Z,85.29
2022-10-31T01:11:59.537Z,85.32
2022-10-31T01:16:59.065Z,85.43
2022-10-31T01:21:59.243Z,85.54
2022-10-31T01:26:59.019Z,85.90
2022-10-31T01:31:59.079Z,85.86
2022-10-31T01:36:59.325Z,85.63
2022-10-31T01:41:59.231Z,85.63
2022-10-31T01:47:03.991Z,85.76
2022-10-31T01:52:03.972Z,85.78
2022-10-31T01:57:00.362Z,85.86
2022-10-31T02:01:59.195Z,85.75
2022-10-31T02:07:03.916Z,86.16
2022-10-31T02:12:00.003Z,86.04
2022-10-31T02:16:58.958Z,86.16
2022-10-31T02:22:05.251Z,86.33
2022-10-31T02:27:09.842Z,86.49
2022-10-31T02:32:07.305Z,86.64
2022-10-31T02:37:06.927Z,86.74
2022-10-31T02:42:07.910Z,86.93
2022-10-31T02:47:03.968Z,86.87
2022-10-31T02:51:59.151Z,87.58
2022-10-31T02:57:03.419Z,87.90
2022-10-31T03:02:16.223Z,88.30
2022-10-31T03:07:08.084Z,88.32
2022-10-31T03:12:07.312Z,87.60
2022-10-31T03:17:01.830Z,87.11
2022-10-31T03:22:03.666Z,86.88
2022-10-31T03:27:01.684Z,86.76
2022-10-31T03:32:04.486Z,86.75
2022-10-31T03:37:03.481Z,86.49
2022-10-31T03:42:05.011Z,86.79
2022-10-31T03:47:00.519Z,86.70
2022-10-31T03:52:03.691Z,86.74
2022-10-31T03:57:06.778Z,86.69
2022-10-31T04:02:06.392Z,86.93
2022-10-31T04:07:01.797Z,86.90
2022-10-31T04:12:00.968Z,86.92
2022-10-31T04:17:02.168Z,87.64
2022-10-31T04:21:58.964Z,87.92
2022-10-31T04:26:58.914Z,87.41
2022-10-31T04:31:59.240Z,87.49
2022-10-31T04:36:58.821Z,87.27
2022-10-31T04:41:59.009Z,87.47
2022-10-31T04:46:58.896Z,87.27
2022-10-31T04:51:59.008Z,87.82
2022-10-31T04:56:59.174Z,87.93
2022-10-31T05:01:59.101Z,88.12
2022-10-31T05:06:59.031Z,87.83
2022-10-31T05:11:59.169Z,87.81
2022-10-31T05:16:58.962Z,88.33
2022-10-31T05:21:59.881Z,88.48
2022-10-31T05:26:59.121Z,88.22
2022-10-31T05:31:59.147Z,88.44
2022-10-31T05:36:58.784Z,88.90
2022-10-31T05:41:59.185Z,89.29
2022-10-31T05:46:58.806Z,89.25
2022-10-31T05:52:01.330Z,89.31
2022-10-31T05:56:58.789Z,88.96
2022-10-31T06:01:58.997Z,88.78
2022-10-31T06:06:59.124Z,88.47
2022-10-31T06:11:58.775Z,88.55
2022-10-31T06:16:58.905Z,88.31
2022-10-31T06:21:59.137Z,88.04
2022-10-31T06:26:58.759Z,87.64
2022-10-31T06:31:59.008Z,86.32
2022-10-31T06:36:59.201Z,85.84
2022-10-31T06:41:58.905Z,85.42
2022-10-31T06:46:59.139Z,85.16
2022-10-31T06:51:59.227Z,85.13
2022-10-31T06:56:58.792Z,85.47
2022-10-31T07:01:59.157Z,85.11
2022-10-31T07:06:58.973Z,85.39
2022-10-31T07:11:58.814Z,85.98
2022-10-31T07:16:58.877Z,87.24
2022-10-31T07:21:59.212Z,87.39
2022-10-31T07:31:58.890Z,86.90
2022-10-31T07:36:59.211Z,86.79
2022-10-31T07:41:59.014Z,87.19
2022-10-31T07:46:58.753Z,87.87
2022-10-31T07:51:58.989Z,87.50
2022-10-31T07:56:58.707Z,87.20
2022-10-31T08:01:58.826Z,86.39
2022-10-31T08:06:59.218Z,85.39
2022-10-31T08:11:58.835Z,81.72
2022-10-31T08:16:58.876Z,72.16
2022-10-31T08:21:59.525Z,56.55
2022-10-31T08:26:58.665Z,46.95
2022-10-31T08:31:58.919Z,36.54
2022-10-31T08:36:58.840Z,32.66
2022-10-31T08:41:58.770Z,32.09
2022-10-31T08:46:58.874Z,29.93
2022-10-31T08:51:59.021Z,28.54
2022-10-31T08:56:58.659Z,26.42
2022-10-31T09:01:59.114Z,25.60
2022-10-31T09:07:20.293Z,24.73
2022-10-31T09:11:59.219Z,24.02
2022-10-31T09:16:58.887Z,22.68
2022-10-31T09:21:59.205Z,22.62
2022-10-31T09:26:58.868Z,23.90
2022-10-31T09:31:58.859Z,22.70
2022-10-31T09:36:59.102Z,23.05
2022-10-31T09:42:18.484Z,22.96
2022-10-31T09:47:05.506Z,22.57
2022-10-31T09:52:03.398Z,22.63
2022-10-31T09:57:00.302Z,22.22
2022-10-31T10:02:03.122Z,23.18
2022-10-31T10:07:02.974Z,22.62
2022-10-31T10:12:06.990Z,22.23
2022-10-31T10:17:08.619Z,22.76
2022-10-31T10:22:09.149Z,25.56
2022-10-31T10:27:05.703Z,32.00
2022-10-31T10:32:06.231Z,34.08
2022-10-31T10:37:04.565Z,36.06
2022-10-31T10:42:09.629Z,38.07
2022-10-31T10:47:10.314Z,39.32
2022-10-31T10:52:19.925Z,39.88
2022-10-31T10:57:11.866Z,41.11
2022-10-31T11:01:59.506Z,41.66
2022-10-31T11:07:01.463Z,42.12
2022-10-31T11:11:59.771Z,42.75
2022-10-31T11:17:10.252Z,43.17
2022-10-31T11:22:06.225Z,44.15
2022-10-31T11:27:13.995Z,45.18
2022-10-31T11:32:00.664Z,45.49
2022-10-31T11:37:05.032Z,45.94
2022-10-31T11:42:08.515Z,46.52
2022-10-31T11:47:01.259Z,46.84
2022-10-31T11:52:02.057Z,47.68
2022-10-31T11:56:58.823Z,47.54
2022-10-31T12:02:00.562Z,47.62
2022-10-31T12:06:59.313Z,47.96
2022-10-31T12:12:10.616Z,48.76
2022-10-31T12:17:05.717Z,48.79
2022-10-31T12:22:05.197Z,49.48
2022-10-31T12:27:10.460Z,49.64
2022-10-31T12:32:15.226Z,50.47
2022-10-31T12:37:06.226Z,50.31
2022-10-31T12:42:10.715Z,50.17
2022-10-31T12:47:12.379Z,50.74
2022-10-31T12:52:11.566Z,51.21
2022-10-31T12:57:07.818Z,51.30
2022-10-31T13:02:04.023Z,51.30
2022-10-31T13:07:03.153Z,51.20
2022-10-31T13:12:04.879Z,51.63
2022-10-31T13:17:00.959Z,51.73
2022-10-31T13:22:06.784Z,52.23
2022-10-31T13:27:01.318Z,52.93
2022-10-31T13:32:00.243Z,53.72
2022-10-31T13:37:06.602Z,54.32
2022-10-31T13:42:04.846Z,55.82
2022-10-31T13:46:58.958Z,56.12
2022-10-31T13:52:13.679Z,57.27
2022-10-31T13:56:59.222Z,58.06
2022-10-31T14:02:01.398Z,58.09
2022-10-31T14:07:06.678Z,58.82
2022-10-31T14:12:03.927Z,58.80
2022-10-31T14:16:59.551Z,60.19
2022-10-31T14:21:59.252Z,60.51
2022-10-31T14:27:01.575Z,61.87
2022-10-31T14:32:07.730Z,62.60
2022-10-31T14:37:08.841Z,64.19
2022-10-31T14:42:11.405Z,64.67
2022-10-31T14:47:08.469Z,65.22
2022-10-31T14:51:59.251Z,65.50
2022-10-31T14:57:02.926Z,65.96
2022-10-31T15:02:01.744Z,66.63
2022-10-31T15:07:04.599Z,67.68
2022-10-31T15:11:58.989Z,68.43
2022-10-31T15:17:02.937Z,69.11
2022-10-31T15:22:00.601Z,70.94
2022-10-31T15:27:03.820Z,72.51
2022-10-31T15:32:01.347Z,72.30
2022-10-31T15:33:24.027Z,71.66
2022-10-31T15:36:58.721Z,71.66
2022-10-31T15:41:59.829Z,72.72
2022-10-31T15:47:01.633Z,73.52
2022-10-31T15:52:04.003Z,74.81
2022-10-31T15:56:59.104Z,74.89
2022-10-31T16:02:03.677Z,75.30
2022-10-31T16:07:01.903Z,75.76
2022-10-31T16:11:59.484Z,76.46
2022-10-31T16:17:01.555Z,76.94
2022-10-31T16:22:05.154Z,77.38
2022-10-31T16:27:03.595Z,78.39
2022-10-31T16:31:59.487Z,78.81
2022-10-31T16:36:58.887Z,79.93
2022-10-31T16:41:58.985Z,80.51
2022-10-31T16:47:09.835Z,80.82
2022-10-31T16:51:58.605Z,81.47
2022-10-31T16:56:59.910Z,81.35
2022-10-31T17:01:59.913Z,81.23
2022-10-31T17:06:58.946Z,83.53
2022-10-31T17:11:59.397Z,83.44
2022-10-31T17:16:58.675Z,83.09
2022-10-31T17:21:58.674Z,82.80
2022-10-31T17:26:58.898Z,82.81
2022-10-31T17:31:59.400Z,82.39
2022-10-31T17:36:58.523Z,83.96
2022-10-31T17:41:59.161Z,83.59
2022-10-31T17:46:58.506Z,84.22
2022-10-31T17:51:58.635Z,84.38
2022-10-31T17:56:58.656Z,85.01
2022-10-31T18:01:59.595Z,85.85
2022-10-31T18:06:58.538Z,86.10
2022-10-31T18:11:59.067Z,86.40
2022-10-31T18:16:58.501Z,86.46
2022-10-31T18:21:58.693Z,87.04
2022-10-31T18:26:58.901Z,86.95
2022-10-31T18:31:58.608Z,87.22
2022-10-31T18:36:58.651Z,87.17
2022-10-31T18:41:58.958Z,87.55
2022-10-31T18:46:58.465Z,87.82
2022-10-31T18:51:58.853Z,88.01
2022-10-31T18:56:58.954Z,88.65
2022-10-31T19:01:58.617Z,88.86
2022-10-31T19:06:58.835Z,89.91
2022-10-31T19:11:59.214Z,90.01
2022-10-31T19:17:02.141Z,90.19
2022-10-31T19:21:58.490Z,90.92
2022-10-31T19:26:59.705Z,90.85
2022-10-31T19:31:58.447Z,91.33
2022-10-31T19:36:58.512Z,90.68
2022-10-31T19:41:59.412Z,91.10
2022-10-31T19:46:58.457Z,91.33
2022-10-31T19:51:58.648Z,91.11
2022-10-31T19:56:58.830Z,91.80
2022-10-31T20:01:58.580Z,91.82
2022-10-31T20:06:58.568Z,92.11
2022-10-31T20:11:58.717Z,91.56
2022-10-31T20:16:58.395Z,91.58
2022-10-31T20:21:58.567Z,92.47
2022-10-31T20:27:00.169Z,92.64
2022-10-31T20:31:58.657Z,92.24
2022-10-31T20:36:58.584Z,92.31
2022-10-31T20:41:58.919Z,91.99
2022-10-31T20:46:58.517Z,93.18
2022-10-31T20:51:58.639Z,93.79
2022-10-31T20:56:58.939Z,92.90
2022-10-31T21:01:58.693Z,92.80
2022-10-31T21:06:58.476Z,93.12
2022-10-31T21:11:58.961Z,93.61
2022-10-31T21:16:58.517Z,92.92
2022-10-31T21:21:58.597Z,92.99
2022-10-31T21:26:59.079Z,93.37
2022-10-31T21:31:58.453Z,93.37
2022-10-31T21:36:58.419Z,93.50
2022-10-31T21:41:58.816Z,93.40
2022-10-31T21:46:58.373Z,93.34
2022-10-31T21:51:58.644Z,93.28
2022-10-31T21:57:00.234Z,93.21
2022-10-31T22:01:59.661Z,93.48
2022-10-31T22:06:58.377Z,93.53
2022-10-31T22:12:00.316Z,93.52
2022-10-31T22:16:58.349Z,93.36
2022-10-31T22:21:58.428Z,93.81
2022-10-31T22:26:58.987Z,93.93
2022-10-31T22:32:00.597Z,93.98
2022-10-31T22:36:58.341Z,93.80
2022-10-31T22:41:58.651Z,93.76
2022-10-31T22:46:58.286Z,94.36
2022-10-31T22:52:02.132Z,94.15
2022-10-31T22:56:58.516Z,94.65
2022-10-31T23:01:58.502Z,93.94
2022-10-31T23:07:00.189Z,93.93
2022-10-31T23:16:59.627Z,94.83
2022-10-31T23:22:01.167Z,94.28
2022-10-31T23:27:09.857Z,94.42
2022-10-31T23:31:58.975Z,94.24
2022-10-31T23:36:58.420Z,94.08
2022-10-31T23:41:58.661Z,94.06
2022-10-31T23:46:59.461Z,94.26
2022-10-31T23:51:58.562Z,94.33
2022-10-31T23:56:59.461Z,94.21
